Portada
METAR-TAF:

METAR-TAF

Aeroports :

Hanoi, Vietnam

latitud: 21-01N, longitud: 105-48E, altitud: 6 m

Observació

L'informe es va fer fa 27 minuts, a les 11:30 UTC
Vent 4 kt del Est
Temperatura 22°C
Humitat 78%
Pressió 1011 hPa
Visibilitat 10 km o més
Cel ennuvolat a una alçada de 3900 ft

METAR: VVNB 171130Z 08004KT 9999 BKN039 22/18 Q1011 NOSIG

Hora: 18:57 (11:57 UTC)

Pronòstic

L'informe es va fer fa 57 minuts, a les 11:00 UTC
Pronòstic vàlid del 17 a les 12 UTC al 18 a les 12 UTC
Vent 7 kt del Nord-Est
Visibilitat 10 km o més
Cel ennuvolat a una alçada de 3500 ft
Temporalment
l' 17 a les 14 UTC al 17 a les 20 UTC
Visibilitat: 4800 m
Escasses núvols a una alçada de 1300 ft
Cel ennuvolat a una alçada de 3500 ft
pluja, boirina

TAF: VVNB 171100Z 1712/1812 05007KT 9999 BKN035 TEMPO 1714/1720 4800 -RA BR FEW013 BKN035

Observacions i pronòstics meteorològics de més de 4000 aeroports (METAR i TAF).

Les estacions disponibles són els punts grocs i vermells al mapa.

Posi el ratolí al punt desitjat per veure el nom de l'estació.

Feu clic per veure les observacions i els pronòstics meteorològics.

Per canviar el mapa: feu clic els botons verds amb una creu de color negre per apropar; al botó verd amb un guió per allunyar la imatge; o en les fletxes verdes per a mapes adjacents.


METAR-TAF: